Portada
METAR-TAF:

METAR-TAF

Aeropuertos :

Tahití, Polinesia Francesa

Aeropuerto Internacional Faa'a

latitud: 17-33S, longitud: 149-37W, altitud: 2 m

Observación

El informe se hizo hace 22 minutos, a las 01:30 UTC
Viento 4 kt del norte
Temperatura 29°C
Humedad 70%
Presión 1012 hPa
Visibilidad 10 km o más
Escasas nubes a una altura de 2000 ft

METAR: NTAA 280130Z 01004KT 9999 FEW020 29/23 Q1012 NOSIG

Hora: 15:52 (01:52 UTC)

Pronóstico

El informe se hizo hace 2 horas y 52 minutos, a las 23:00 UTC
Pronóstico válido del 28 a las 00 UTC al 29 a las 06 UTC
Viento 5 kt con dirección variable
Visibilidad 10 km o más
Escasas nubes a una altura de 2300 ft
Temporalmente
del 28 a las 21 UTC al 29 a las 03 UTC
Viento 15 kt del noreste

TAF: NTAA 272300Z 2800/2906 VRB05KT 9999 FEW023 TEMPO 2821/2903 05015KT

Observaciones y pronósticos meteorológicos de más de 4000 aeropuertos (mensajes METAR y TAF).

Los puntos amarillos y rojos representan las estaciones disponibles.

Ponga el ratón en el punto deseado para ver el nombre de la estación.

Haga clic para ver las observaciones y los pronósticos meteorológicos.

Para cambiar el mapa : haga clic en los botones verdes con una cruz de color negro para hacer un zoom, en el botón verde con un guión para alejar o en las flechas verdes para mapas adyacentes.


METAR-TAF: